sensor_id;sensor_type;location;lat;lon;timestamp;pressure;altitude;pressure_sealevel;temperature;humidity
35224;BME280;21367;51.930;8.112;2023-10-13T00:03:04;100615.66;;;16.42;100.00
35224;BME280;21367;51.930;8.112;2023-10-13T00:08:15;100616.47;;;16.38;100.00
35224;BME280;21367;51.930;8.112;2023-10-13T00:13:21;100617.50;;;16.48;100.00
35224;BME280;21367;51.930;8.112;2023-10-13T00:18:29;100612.97;;;16.33;100.00
35224;BME280;21367;51.930;8.112;2023-10-13T00:23:34;100618.25;;;16.42;100.00
35224;BME280;21367;51.930;8.112;2023-10-13T00:28:38;100617.44;;;16.43;100.00
35224;BME280;21367;51.930;8.112;2023-10-13T00:33:50;100611.28;;;16.38;100.00
35224;BME280;21367;51.930;8.112;2023-10-13T00:38:56;100606.31;;;16.49;100.00
35224;BME280;21367;51.930;8.112;2023-10-13T00:44:00;100603.56;;;16.41;100.00
35224;BME280;21367;51.930;8.112;2023-10-13T00:49:12;100598.50;;;16.49;100.00
35224;BME280;21367;51.930;8.112;2023-10-13T00:54:19;100580.59;;;16.67;100.00
35224;BME280;21367;51.930;8.112;2023-10-13T00:59:27;100579.78;;;16.70;100.00
35224;BME280;21367;51.930;8.112;2023-10-13T01:04:36;100577.75;;;16.49;100.00
35224;BME280;21367;51.930;8.112;2023-10-13T01:09:40;100575.31;;;16.59;100.00
35224;BME280;21367;51.930;8.112;2023-10-13T01:14:47;100563.97;;;16.53;100.00
35224;BME280;21367;51.930;8.112;2023-10-13T01:19:54;100558.16;;;16.69;100.00
35224;BME280;21367;51.930;8.112;2023-10-13T01:25:02;100566.63;;;16.56;100.00
35224;BME280;21367;51.930;8.112;2023-10-13T01:30:13;100551.97;;;16.58;100.00
35224;BME280;21367;51.930;8.112;2023-10-13T01:35:23;100551.06;;;16.56;100.00
35224;BME280;21367;51.930;8.112;2023-10-13T01:40:39;100545.03;;;16.58;100.00
35224;BME280;21367;51.930;8.112;2023-10-13T01:45:44;100531.28;;;16.65;100.00
35224;BME280;21367;51.930;8.112;2023-10-13T01:50:50;100527.84;;;16.66;100.00
35224;BME280;21367;51.930;8.112;2023-10-13T01:55:58;100537.34;;;16.64;100.00
35224;BME280;21367;51.930;8.112;2023-10-13T02:01:06;100528.69;;;16.64;100.00
35224;BME280;21367;51.930;8.112;2023-10-13T02:06:10;100519.22;;;16.69;100.00
35224;BME280;21367;51.930;8.112;2023-10-13T02:11:20;100516.59;;;16.64;100.00
35224;BME280;21367;51.930;8.112;2023-10-13T02:16:24;100502.63;;;16.56;100.00
35224;BME280;21367;51.930;8.112;2023-10-13T02:21:28;100502.69;;;16.61;100.00
35224;BME280;21367;51.930;8.112;2023-10-13T02:26:35;100510.53;;;16.67;100.00
35224;BME280;21367;51.930;8.112;2023-10-13T02:31:42;100495.59;;;16.49;100.00
35224;BME280;21367;51.930;8.112;2023-10-13T02:36:54;100487.19;;;16.65;100.00
35224;BME280;21367;51.930;8.112;2023-10-13T02:42:01;100476.59;;;16.49;100.00
35224;BME280;21367;51.930;8.112;2023-10-13T02:47:07;100470.41;;;16.42;100.00
35224;BME280;21367;51.930;8.112;2023-10-13T02:52:15;100461.78;;;16.43;100.00
35224;BME280;21367;51.930;8.112;2023-10-13T02:57:21;100462.06;;;16.63;100.00
35224;BME280;21367;51.930;8.112;2023-10-13T03:02:25;100458.28;;;16.41;100.00
35224;BME280;21367;51.930;8.112;2023-10-13T03:07:31;100453.44;;;16.67;100.00
35224;BME280;21367;51.930;8.112;2023-10-13T03:12:39;100445.00;;;16.19;100.00
35224;BME280;21367;51.930;8.112;2023-10-13T03:17:49;100442.97;;;16.58;100.00
35224;BME280;21367;51.930;8.112;2023-10-13T03:22:55;100430.06;;;16.62;100.00
35224;BME280;21367;51.930;8.112;2023-10-13T03:28:02;100416.09;;;16.53;100.00
35224;BME280;21367;51.930;8.112;2023-10-13T03:33:10;100417.81;;;16.52;100.00
35224;BME280;21367;51.930;8.112;2023-10-13T03:38:26;100410.88;;;16.51;100.00
35224;BME280;21367;51.930;8.112;2023-10-13T03:43:32;100404.13;;;16.64;100.00
35224;BME280;21367;51.930;8.112;2023-10-13T03:48:45;100391.13;;;16.62;100.00
35224;BME280;21367;51.930;8.112;2023-10-13T03:54:00;100398.84;;;16.56;100.00
35224;BME280;21367;51.930;8.112;2023-10-13T03:59:12;100391.16;;;16.67;100.00
35224;BME280;21367;51.930;8.112;2023-10-13T04:04:23;100385.09;;;16.63;100.00
35224;BME280;21367;51.930;8.112;2023-10-13T04:09:36;100375.59;;;16.64;100.00
35224;BME280;21367;51.930;8.112;2023-10-13T04:15:17;100364.47;;;16.74;100.00
35224;BME280;21367;51.930;8.112;2023-10-13T04:20:37;100363.69;;;16.80;100.00
35224;BME280;21367;51.930;8.112;2023-10-13T04:25:46;100353.31;;;16.81;100.00
35224;BME280;21367;51.930;8.112;2023-10-13T04:31:15;100351.41;;;16.70;100.00
35224;BME280;21367;51.930;8.112;2023-10-13T04:36:25;100356.81;;;16.85;100.00
35224;BME280;21367;51.930;8.112;2023-10-13T04:41:41;100337.81;;;16.86;100.00
35224;BME280;21367;51.930;8.112;2023-10-13T04:47:01;100325.44;;;16.66;100.00
35224;BME280;21367;51.930;8.112;2023-10-13T04:52:19;100310.09;;;16.83;100.00
35224;BME280;21367;51.930;8.112;2023-10-13T04:57:35;100304.69;;;16.65;100.00
35224;BME280;21367;51.930;8.112;2023-10-13T05:02:50;100295.25;;;16.75;100.00
35224;BME280;21367;51.930;8.112;2023-10-13T05:08:27;100293.53;;;16.74;100.00
35224;BME280;21367;51.930;8.112;2023-10-13T05:13:43;100276.97;;;16.61;100.00
35224;BME280;21367;51.930;8.112;2023-10-13T05:19:02;100278.75;;;16.70;100.00
35224;BME280;21367;51.930;8.112;2023-10-13T05:24:18;100264.16;;;16.76;100.00
35224;BME280;21367;51.930;8.112;2023-10-13T05:29:38;100250.03;;;16.50;100.00
35224;BME280;21367;51.930;8.112;2023-10-13T05:34:57;100248.44;;;16.65;100.00
35224;BME280;21367;51.930;8.112;2023-10-13T05:40:13;100228.56;;;16.64;100.00
35224;BME280;21367;51.930;8.112;2023-10-13T05:45:29;100218.94;;;16.53;100.00
35224;BME280;21367;51.930;8.112;2023-10-13T05:51:06;100215.34;;;16.41;100.00
35224;BME280;21367;51.930;8.112;2023-10-13T05:56:22;100211.94;;;16.47;100.00
35224;BME280;21367;51.930;8.112;2023-10-13T06:01:38;100212.97;;;16.61;100.00
35224;BME280;21367;51.930;8.112;2023-10-13T06:06:57;100205.19;;;16.63;100.00
35224;BME280;21367;51.930;8.112;2023-10-13T06:12:13;100211.19;;;16.60;100.00
35224;BME280;21367;51.930;8.112;2023-10-13T06:17:29;100200.94;;;16.73;100.00
35224;BME280;21367;51.930;8.112;2023-10-13T06:22:50;100202.63;;;16.66;100.00
35224;BME280;21367;51.930;8.112;2023-10-13T06:28:06;100197.59;;;16.81;100.00
35224;BME280;21367;51.930;8.112;2023-10-13T06:33:22;100184.66;;;16.83;100.00
35224;BME280;21367;51.930;8.112;2023-10-13T06:38:32;100201.06;;;16.80;100.00
35224;BME280;21367;51.930;8.112;2023-10-13T06:43:37;100199.34;;;16.85;100.00
35224;BME280;21367;51.930;8.112;2023-10-13T06:48:44;100192.44;;;16.84;100.00
35224;BME280;21367;51.930;8.112;2023-10-13T06:53:50;100189.09;;;17.01;100.00
35224;BME280;21367;51.930;8.112;2023-10-13T06:58:57;100188.19;;;16.97;100.00
35224;BME280;21367;51.930;8.112;2023-10-13T07:04:06;100183.06;;;17.02;100.00
35224;BME280;21367;51.930;8.112;2023-10-13T07:09:17;100174.50;;;17.18;100.00
35224;BME280;21367;51.930;8.112;2023-10-13T07:14:46;100173.66;;;17.22;100.00
35224;BME280;21367;51.930;8.112;2023-10-13T07:19:53;100171.13;;;17.34;100.00
35224;BME280;21367;51.930;8.112;2023-10-13T07:25:09;100189.28;;;17.28;100.00
35224;BME280;21367;51.930;8.112;2023-10-13T07:30:24;100171.97;;;17.27;100.00
35224;BME280;21367;51.930;8.112;2023-10-13T07:35:31;100173.81;;;17.48;100.00
35224;BME280;21367;51.930;8.112;2023-10-13T07:40:39;100170.44;;;17.65;100.00
35224;BME280;21367;51.930;8.112;2023-10-13T07:45:50;100174.81;;;17.76;100.00
35224;BME280;21367;51.930;8.112;2023-10-13T07:51:00;100172.25;;;17.79;100.00
35224;BME280;21367;51.930;8.112;2023-10-13T07:56:07;100176.53;;;17.76;100.00
35224;BME280;21367;51.930;8.112;2023-10-13T08:01:12;100172.31;;;17.93;100.00
35224;BME280;21367;51.930;8.112;2023-10-13T08:06:19;100155.00;;;18.06;100.00
35224;BME280;21367;51.930;8.112;2023-10-13T08:11:29;100167.19;;;18.24;100.00
35224;BME280;21367;51.930;8.112;2023-10-13T08:16:35;100162.00;;;18.30;100.00
35224;BME280;21367;51.930;8.112;2023-10-13T08:21:54;100167.22;;;18.38;100.00
35224;BME280;21367;51.930;8.112;2023-10-13T08:27:18;100161.16;;;18.49;100.00
35224;BME280;21367;51.930;8.112;2023-10-13T08:32:35;100156.00;;;18.76;100.00
35224;BME280;21367;51.930;8.112;2023-10-13T08:37:54;100149.03;;;18.88;100.00
35224;BME280;21367;51.930;8.112;2023-10-13T08:43:10;100135.97;;;19.13;100.00
35224;BME280;21367;51.930;8.112;2023-10-13T08:48:14;100134.22;;;19.16;100.00
35224;BME280;21367;51.930;8.112;2023-10-13T08:53:20;100119.34;;;19.55;100.00
35224;BME280;21367;51.930;8.112;2023-10-13T08:58:36;100095.72;;;19.94;100.00
35224;BME280;21367;51.930;8.112;2023-10-13T09:03:55;100085.94;;;20.25;100.00
35224;BME280;21367;51.930;8.112;2023-10-13T09:09:20;100072.78;;;20.39;100.00
35224;BME280;21367;51.930;8.112;2023-10-13T09:14:39;100062.38;;;20.36;100.00
35224;BME280;21367;51.930;8.112;2023-10-13T09:19:47;100050.97;;;20.44;100.00
35224;BME280;21367;51.930;8.112;2023-10-13T09:24:57;100046.69;;;20.36;100.00
35224;BME280;21367;51.930;8.112;2023-10-13T09:30:06;100030.34;;;20.17;100.00
35224;BME280;21367;51.930;8.112;2023-10-13T09:35:20;100011.03;;;20.38;100.00
35224;BME280;21367;51.930;8.112;2023-10-13T09:40:26;100014.41;;;20.47;100.00
35224;BME280;21367;51.930;8.112;2023-10-13T09:45:38;100002.19;;;20.49;100.00
35224;BME280;21367;51.930;8.112;2023-10-13T09:50:47;100000.19;;;20.79;100.00
35224;BME280;21367;51.930;8.112;2023-10-13T09:56:00;99999.13;;;20.95;100.00
35224;BME280;21367;51.930;8.112;2023-10-13T10:01:17;99997.09;;;21.17;100.00
35224;BME280;21367;51.930;8.112;2023-10-13T10:06:31;99991.72;;;21.30;100.00
35224;BME280;21367;51.930;8.112;2023-10-13T10:17:29;99979.78;;;21.74;92.74
35224;BME280;21367;51.930;8.112;2023-10-13T10:22:34;99969.31;;;21.74;93.13
35224;BME280;21367;51.930;8.112;2023-10-13T10:27:37;99986.41;;;21.96;89.78
35224;BME280;21367;51.930;8.112;2023-10-13T10:32:44;99974.13;;;22.01;89.19
35224;BME280;21367;51.930;8.112;2023-10-13T10:37:49;99964.94;;;22.30;88.83
35224;BME280;21367;51.930;8.112;2023-10-13T10:48:07;99949.16;;;22.33;83.76
35224;BME280;21367;51.930;8.112;2023-10-13T10:53:19;99942.44;;;22.66;84.69
35224;BME280;21367;51.930;8.112;2023-10-13T10:58:23;99930.69;;;22.84;83.31
35224;BME280;21367;51.930;8.112;2023-10-13T11:03:35;99932.03;;;23.44;80.21
35224;BME280;21367;51.930;8.112;2023-10-13T11:08:38;99928.69;;;23.39;79.62
35224;BME280;21367;51.930;8.112;2023-10-13T11:13:44;99922.19;;;23.16;80.99
35224;BME280;21367;51.930;8.112;2023-10-13T11:19:02;99902.44;;;23.39;79.61
35224;BME280;21367;51.930;8.112;2023-10-13T11:24:06;99904.78;;;23.12;79.11
35224;BME280;21367;51.930;8.112;2023-10-13T11:29:12;99891.81;;;23.45;78.27
35224;BME280;21367;51.930;8.112;2023-10-13T11:34:18;99886.50;;;23.48;78.24
35224;BME280;21367;51.930;8.112;2023-10-13T11:39:22;99883.44;;;23.65;77.73
35224;BME280;21367;51.930;8.112;2023-10-13T11:44:34;99879.44;;;23.50;76.31
35224;BME280;21367;51.930;8.112;2023-10-13T11:49:46;99876.44;;;23.65;77.46
35224;BME280;21367;51.930;8.112;2023-10-13T11:54:50;99861.34;;;23.39;78.39
35224;BME280;21367;51.930;8.112;2023-10-13T11:59:54;99847.38;;;23.01;77.83
35224;BME280;21367;51.930;8.112;2023-10-13T12:05:20;99854.78;;;23.21;77.07
35224;BME280;21367;51.930;8.112;2023-10-13T12:10:31;99839.66;;;22.95;77.25
35224;BME280;21367;51.930;8.112;2023-10-13T12:15:50;99833.50;;;22.96;77.67
35224;BME280;21367;51.930;8.112;2023-10-13T12:21:08;99818.06;;;23.21;76.32
35224;BME280;21367;51.930;8.112;2023-10-13T12:26:14;99802.75;;;24.68;73.79
35224;BME280;21367;51.930;8.112;2023-10-13T12:31:33;99801.72;;;25.30;70.02
35224;BME280;21367;51.930;8.112;2023-10-13T12:36:42;99792.34;;;24.93;69.57
35224;BME280;21367;51.930;8.112;2023-10-13T12:41:54;99788.53;;;24.75;68.25
35224;BME280;21367;51.930;8.112;2023-10-13T12:47:10;99780.41;;;24.83;68.01
35224;BME280;21367;51.930;8.112;2023-10-13T12:52:29;99781.34;;;24.22;70.57
35224;BME280;21367;51.930;8.112;2023-10-13T12:57:35;99758.84;;;24.72;67.98
35224;BME280;21367;51.930;8.112;2023-10-13T13:02:43;99752.09;;;25.44;66.48
35224;BME280;21367;51.930;8.112;2023-10-13T13:07:49;99769.78;;;25.92;62.50
35224;BME280;21367;51.930;8.112;2023-10-13T13:12:55;99755.03;;;25.61;64.20
35224;BME280;21367;51.930;8.112;2023-10-13T13:17:59;99745.06;;;25.70;63.36
35224;BME280;21367;51.930;8.112;2023-10-13T13:23:13;99743.03;;;25.28;64.00
35224;BME280;21367;51.930;8.112;2023-10-13T13:28:16;99745.94;;;25.70;63.74
35224;BME280;21367;51.930;8.112;2023-10-13T13:33:20;99740.06;;;25.38;64.74
35224;BME280;21367;51.930;8.112;2023-10-13T13:38:28;99738.63;;;25.53;64.48
35224;BME280;21367;51.930;8.112;2023-10-13T13:43:32;99726.94;;;25.37;65.00
35224;BME280;21367;51.930;8.112;2023-10-13T13:48:51;99731.59;;;25.29;65.39
35224;BME280;21367;51.930;8.112;2023-10-13T13:54:02;99756.72;;;24.25;68.81
35224;BME280;21367;51.930;8.112;2023-10-13T13:59:07;99730.75;;;25.00;67.13
35224;BME280;21367;51.930;8.112;2023-10-13T14:04:16;99722.69;;;24.80;66.22
35224;BME280;21367;51.930;8.112;2023-10-13T14:09:23;99707.03;;;24.49;67.08
35224;BME280;21367;51.930;8.112;2023-10-13T14:14:40;99725.25;;;23.94;68.77
35224;BME280;21367;51.930;8.112;2023-10-13T14:19:50;99732.66;;;23.80;69.19
35224;BME280;21367;51.930;8.112;2023-10-13T14:24:58;99719.84;;;23.67;68.62
35224;BME280;21367;51.930;8.112;2023-10-13T14:30:10;99722.88;;;23.52;69.62
35224;BME280;21367;51.930;8.112;2023-10-13T14:35:19;99712.00;;;23.66;68.46
35224;BME280;21367;51.930;8.112;2023-10-13T14:40:29;99722.25;;;23.76;67.76
35224;BME280;21367;51.930;8.112;2023-10-13T14:45:35;99726.13;;;23.62;68.69
35224;BME280;21367;51.930;8.112;2023-10-13T14:50:39;99727.69;;;23.35;69.64
35224;BME280;21367;51.930;8.112;2023-10-13T14:55:48;99722.66;;;23.28;69.24
35224;BME280;21367;51.930;8.112;2023-10-13T15:00:52;99725.44;;;23.22;67.95
35224;BME280;21367;51.930;8.112;2023-10-13T15:05:59;99722.34;;;23.06;68.53
35224;BME280;21367;51.930;8.112;2023-10-13T15:11:10;99725.69;;;23.12;69.83
35224;BME280;21367;51.930;8.112;2023-10-13T15:16:16;99729.44;;;23.01;70.03
35224;BME280;21367;51.930;8.112;2023-10-13T15:21:20;99719.97;;;22.96;69.62
35224;BME280;21367;51.930;8.112;2023-10-13T15:26:29;99709.09;;;22.75;70.99
35224;BME280;21367;51.930;8.112;2023-10-13T15:31:38;99710.88;;;22.72;70.90
35224;BME280;21367;51.930;8.112;2023-10-13T15:36:43;99715.41;;;22.67;70.64
35224;BME280;21367;51.930;8.112;2023-10-13T15:41:50;99704.28;;;22.57;71.16
35224;BME280;21367;51.930;8.112;2023-10-13T15:46:59;99706.53;;;22.33;72.03
35224;BME280;21367;51.930;8.112;2023-10-13T15:52:03;99701.16;;;22.39;71.12
35224;BME280;21367;51.930;8.112;2023-10-13T15:57:09;99695.34;;;22.27;70.97
35224;BME280;21367;51.930;8.112;2023-10-13T16:02:17;99706.66;;;22.29;71.35
35224;BME280;21367;51.930;8.112;2023-10-13T16:07:24;99706.91;;;22.16;71.08
35224;BME280;21367;51.930;8.112;2023-10-13T16:12:31;99712.09;;;22.18;70.56
35224;BME280;21367;51.930;8.112;2023-10-13T16:17:38;99719.19;;;22.11;70.84
35224;BME280;21367;51.930;8.112;2023-10-13T16:22:45;99716.88;;;21.98;71.44
35224;BME280;21367;51.930;8.112;2023-10-13T16:27:52;99719.50;;;21.98;71.45
35224;BME280;21367;51.930;8.112;2023-10-13T16:32:56;99695.91;;;21.99;70.18
35224;BME280;21367;51.930;8.112;2023-10-13T16:37:59;99690.72;;;21.96;70.10
35224;BME280;21367;51.930;8.112;2023-10-13T16:43:09;99686.41;;;21.95;69.99
35224;BME280;21367;51.930;8.112;2023-10-13T16:48:14;99699.78;;;21.80;70.82
35224;BME280;21367;51.930;8.112;2023-10-13T16:53:18;99696.19;;;21.85;69.77
35224;BME280;21367;51.930;8.112;2023-10-13T16:58:24;99702.06;;;21.97;68.73
35224;BME280;21367;51.930;8.112;2023-10-13T17:03:28;99691.88;;;21.83;70.22
35224;BME280;21367;51.930;8.112;2023-10-13T17:08:32;99698.94;;;21.79;70.05
35224;BME280;21367;51.930;8.112;2023-10-13T17:13:41;99700.81;;;21.73;70.19
35224;BME280;21367;51.930;8.112;2023-10-13T17:18:47;99704.34;;;21.70;70.83
35224;BME280;21367;51.930;8.112;2023-10-13T17:23:52;99698.50;;;21.57;71.67
35224;BME280;21367;51.930;8.112;2023-10-13T17:28:59;99691.13;;;21.31;73.14
35224;BME280;21367;51.930;8.112;2023-10-13T17:34:03;99686.00;;;21.25;73.77
35224;BME280;21367;51.930;8.112;2023-10-13T17:39:07;99690.28;;;21.29;73.29
35224;BME280;21367;51.930;8.112;2023-10-13T17:44:13;99680.94;;;21.14;75.23
35224;BME280;21367;51.930;8.112;2023-10-13T17:49:18;99668.50;;;20.79;78.35
35224;BME280;21367;51.930;8.112;2023-10-13T17:54:22;99654.88;;;20.60;79.59
35224;BME280;21367;51.930;8.112;2023-10-13T17:59:28;99653.28;;;20.50;81.61
35224;BME280;21367;51.930;8.112;2023-10-13T18:04:32;99648.19;;;20.39;83.34
35224;BME280;21367;51.930;8.112;2023-10-13T18:09:36;99627.75;;;20.10;86.57
35224;BME280;21367;51.930;8.112;2023-10-13T18:14:43;99649.69;;;19.97;87.54
35224;BME280;21367;51.930;8.112;2023-10-13T18:19:47;99643.66;;;19.92;86.75
35224;BME280;21367;51.930;8.112;2023-10-13T18:24:51;99635.88;;;19.88;87.33
35224;BME280;21367;51.930;8.112;2023-10-13T18:29:57;99630.69;;;19.85;87.24
35224;BME280;21367;51.930;8.112;2023-10-13T18:35:00;99636.81;;;19.84;87.78
35224;BME280;21367;51.930;8.112;2023-10-13T18:40:11;99629.06;;;19.77;87.88
35224;BME280;21367;51.930;8.112;2023-10-13T18:45:19;99611.78;;;19.70;89.10
35224;BME280;21367;51.930;8.112;2023-10-13T18:50:23;99602.31;;;19.58;89.72
35224;BME280;21367;51.930;8.112;2023-10-13T18:55:28;99612.88;;;19.49;91.28
35224;BME280;21367;51.930;8.112;2023-10-13T19:00:34;99627.81;;;19.34;92.93
35224;BME280;21367;51.930;8.112;2023-10-13T19:05:37;99613.81;;;19.41;93.70
35224;BME280;21367;51.930;8.112;2023-10-13T19:10:45;99616.59;;;19.26;96.15
35224;BME280;21367;51.930;8.112;2023-10-13T19:15:51;99602.06;;;19.07;98.81
35224;BME280;21367;51.930;8.112;2023-10-13T19:21:03;99594.09;;;19.19;96.65
35224;BME280;21367;51.930;8.112;2023-10-13T19:26:13;99589.59;;;19.33;93.52
35224;BME280;21367;51.930;8.112;2023-10-13T19:31:20;99588.66;;;19.40;93.21
35224;BME280;21367;51.930;8.112;2023-10-13T19:36:25;99586.97;;;19.33;95.68
35224;BME280;21367;51.930;8.112;2023-10-13T19:41:30;99574.16;;;19.18;97.30
35224;BME280;21367;51.930;8.112;2023-10-13T19:46:37;99562.84;;;19.19;96.77
35224;BME280;21367;51.930;8.112;2023-10-13T19:51:41;99566.31;;;19.19;94.71
35224;BME280;21367;51.930;8.112;2023-10-13T19:56:45;99555.84;;;19.23;97.16
35224;BME280;21367;51.930;8.112;2023-10-13T20:01:51;99537.66;;;19.19;95.09
35224;BME280;21367;51.930;8.112;2023-10-13T20:06:55;99543.84;;;19.12;97.51
35224;BME280;21367;51.930;8.112;2023-10-13T20:11:58;99511.16;;;18.84;100.00
35224;BME280;21367;51.930;8.112;2023-10-13T20:17:06;99508.38;;;19.01;97.99
35224;BME280;21367;51.930;8.112;2023-10-13T20:22:14;99517.94;;;19.00;97.39
35224;BME280;21367;51.930;8.112;2023-10-13T20:27:18;99509.19;;;19.04;97.47
35224;BME280;21367;51.930;8.112;2023-10-13T20:32:25;99521.34;;;19.04;97.70
35224;BME280;21367;51.930;8.112;2023-10-13T20:37:29;99538.88;;;18.86;99.80
35224;BME280;21367;51.930;8.112;2023-10-13T20:42:33;99550.25;;;18.79;100.00
35224;BME280;21367;51.930;8.112;2023-10-13T20:47:39;99540.97;;;18.47;100.00
35224;BME280;21367;51.930;8.112;2023-10-13T20:52:43;99545.69;;;18.02;100.00
35224;BME280;21367;51.930;8.112;2023-10-13T20:57:50;99547.56;;;17.79;100.00
35224;BME280;21367;51.930;8.112;2023-10-13T21:02:58;99539.97;;;17.36;100.00
35224;BME280;21367;51.930;8.112;2023-10-13T21:08:02;99534.88;;;17.15;100.00
35224;BME280;21367;51.930;8.112;2023-10-13T21:13:06;99522.72;;;17.21;100.00
35224;BME280;21367;51.930;8.112;2023-10-13T21:18:13;99506.31;;;17.08;100.00
35224;BME280;21367;51.930;8.112;2023-10-13T21:23:18;99485.59;;;16.99;100.00
35224;BME280;21367;51.930;8.112;2023-10-13T21:28:21;99463.94;;;17.00;100.00
35224;BME280;21367;51.930;8.112;2023-10-13T21:33:28;99438.91;;;16.85;100.00
35224;BME280;21367;51.930;8.112;2023-10-13T21:38:35;99435.38;;;17.08;100.00
35224;BME280;21367;51.930;8.112;2023-10-13T21:43:39;99436.22;;;17.10;100.00
35224;BME280;21367;51.930;8.112;2023-10-13T21:48:46;99437.16;;;16.94;100.00
35224;BME280;21367;51.930;8.112;2023-10-13T21:53:51;99425.91;;;16.88;100.00
35224;BME280;21367;51.930;8.112;2023-10-13T21:58:55;99417.28;;;16.93;100.00
35224;BME280;21367;51.930;8.112;2023-10-13T22:04:02;99405.09;;;17.02;100.00
35224;BME280;21367;51.930;8.112;2023-10-13T22:09:20;99389.47;;;17.10;100.00
35224;BME280;21367;51.930;8.112;2023-10-13T22:14:25;99391.13;;;17.25;100.00
35224;BME280;21367;51.930;8.112;2023-10-13T22:19:31;99382.56;;;17.12;100.00
35224;BME280;21367;51.930;8.112;2023-10-13T22:24:35;99373.00;;;17.16;100.00
35224;BME280;21367;51.930;8.112;2023-10-13T22:29:38;99354.81;;;17.17;100.00
35224;BME280;21367;51.930;8.112;2023-10-13T22:34:45;99352.19;;;17.22;100.00
35224;BME280;21367;51.930;8.112;2023-10-13T22:39:49;99343.53;;;17.24;100.00
35224;BME280;21367;51.930;8.112;2023-10-13T22:44:53;99337.41;;;17.31;100.00
35224;BME280;21367;51.930;8.112;2023-10-13T22:50:00;99330.38;;;17.44;100.00
35224;BME280;21367;51.930;8.112;2023-10-13T22:55:05;99331.28;;;17.40;100.00
35224;BME280;21367;51.930;8.112;2023-10-13T23:00:21;99316.38;;;17.62;100.00
35224;BME280;21367;51.930;8.112;2023-10-13T23:05:50;99309.34;;;17.70;100.00
35224;BME280;21367;51.930;8.112;2023-10-13T23:11:04;99308.50;;;17.71;100.00
35224;BME280;21367;51.930;8.112;2023-10-13T23:16:14;99310.03;;;17.94;100.00
35224;BME280;21367;51.930;8.112;2023-10-13T23:21:21;99290.91;;;17.98;100.00
35224;BME280;21367;51.930;8.112;2023-10-13T23:26:26;99297.78;;;18.05;100.00
35224;BME280;21367;51.930;8.112;2023-10-13T23:31:30;99287.22;;;18.19;100.00
35224;BME280;21367;51.930;8.112;2023-10-13T23:36:38;99279.31;;;18.28;100.00
35224;BME280;21367;51.930;8.112;2023-10-13T23:41:42;99266.16;;;18.39;100.00
35224;BME280;21367;51.930;8.112;2023-10-13T23:46:46;99252.28;;;18.38;100.00
35224;BME280;21367;51.930;8.112;2023-10-13T23:51:52;99244.56;;;18.34;100.00
35224;BME280;21367;51.930;8.112;2023-10-13T23:57:01;99238.41;;;18.39;100.00
